createdAt,value
2022-09-12T00:02:55.504Z,99.90
2022-09-12T00:06:38.095Z,99.90
2022-09-12T00:10:20.167Z,99.90
2022-09-12T00:14:03.087Z,99.90
2022-09-12T00:17:44.924Z,99.90
2022-09-12T00:21:26.988Z,99.90
2022-09-12T00:25:09.227Z,99.90
2022-09-12T00:28:51.562Z,99.90
2022-09-12T00:32:34.253Z,99.90
2022-09-12T00:36:20.007Z,99.90
2022-09-12T00:40:02.234Z,99.90
2022-09-12T00:43:48.002Z,99.90
2022-09-12T00:47:33.031Z,99.90
2022-09-12T00:51:15.856Z,99.90
2022-09-12T00:55:06.453Z,99.90
2022-09-12T00:58:58.353Z,99.90
2022-09-12T01:02:41.024Z,99.90
2022-09-12T01:06:27.124Z,99.90
2022-09-12T01:10:10.558Z,99.90
2022-09-12T01:13:52.489Z,99.90
2022-09-12T01:17:44.923Z,99.90
2022-09-12T01:21:51.018Z,99.90
2022-09-12T01:25:54.774Z,99.90
2022-09-12T01:29:57.552Z,99.90
2022-09-12T01:34:01.035Z,99.90
2022-09-12T01:37:49.003Z,99.90
2022-09-12T01:42:13.810Z,99.90
2022-09-12T01:46:07.201Z,99.90
2022-09-12T01:49:52.880Z,99.90
2022-09-12T01:53:46.907Z,99.90
2022-09-12T01:57:36.537Z,99.90
2022-09-12T02:01:24.514Z,99.90
2022-09-12T02:05:27.222Z,99.90
2022-09-12T02:09:19.683Z,99.90
2022-09-12T02:13:15.091Z,99.90
2022-09-12T02:17:08.815Z,99.90
2022-09-12T02:20:51.867Z,99.90
2022-09-12T02:24:39.428Z,99.90
2022-09-12T02:28:30.972Z,99.90
2022-09-12T02:32:32.798Z,99.90
2022-09-12T02:36:34.634Z,99.90
2022-09-12T02:40:17.858Z,99.90
2022-09-12T02:43:59.875Z,99.90
2022-09-12T02:48:36.242Z,99.90
2022-09-12T02:52:18.475Z,99.90
2022-09-12T02:56:00.734Z,99.90
2022-09-12T02:59:42.742Z,99.90
2022-09-12T03:03:43.220Z,99.90
2022-09-12T03:07:42.547Z,99.90
2022-09-12T03:11:31.516Z,99.90
2022-09-12T03:15:27.159Z,99.90
2022-09-12T03:19:27.456Z,99.90
2022-09-12T03:23:24.958Z,99.90
2022-09-12T03:27:31.470Z,99.90
2022-09-12T03:31:15.337Z,99.90
2022-09-12T03:34:57.143Z,99.90
2022-09-12T03:38:39.275Z,99.90
2022-09-12T03:42:21.099Z,99.90
2022-09-12T03:46:03.098Z,99.90
2022-09-12T03:49:45.101Z,99.90
2022-09-12T03:53:26.999Z,99.90
2022-09-12T03:57:08.839Z,99.90
2022-09-12T04:00:50.892Z,99.90
2022-09-12T04:04:32.765Z,99.90
2022-09-12T04:08:15.007Z,99.90
2022-09-12T04:11:56.814Z,99.90
2022-09-12T04:15:38.653Z,99.90
2022-09-12T04:19:20.520Z,99.90
2022-09-12T04:23:02.352Z,99.90
2022-09-12T04:26:44.573Z,99.90
2022-09-12T04:30:26.438Z,99.90
2022-09-12T04:34:08.313Z,99.90
2022-09-12T04:37:50.139Z,99.90
2022-09-12T04:41:37.722Z,99.90
2022-09-12T04:45:19.571Z,99.90
2022-09-12T04:49:01.667Z,99.90
2022-09-12T04:52:43.534Z,99.90
2022-09-12T04:56:26.723Z,99.90
2022-09-12T05:00:13.349Z,99.90
2022-09-12T05:03:56.089Z,99.90
2022-09-12T05:07:37.965Z,99.90
2022-09-12T05:11:25.488Z,99.90
2022-09-12T05:15:10.483Z,99.90
2022-09-12T05:18:52.645Z,99.90
2022-09-12T05:22:34.505Z,99.90
2022-09-12T05:26:17.196Z,99.90
2022-09-12T05:29:59.129Z,99.90
2022-09-12T05:33:43.189Z,99.90
2022-09-12T05:37:25.114Z,99.90
2022-09-12T05:41:17.064Z,99.90
2022-09-12T05:45:00.144Z,99.90
2022-09-12T05:48:43.691Z,99.90
2022-09-12T05:52:25.604Z,99.90
2022-09-12T05:56:11.383Z,99.90
2022-09-12T05:59:53.306Z,99.90
2022-09-12T06:03:46.917Z,99.90
2022-09-12T06:07:29.442Z,99.90
2022-09-12T06:11:17.340Z,99.90
2022-09-12T06:14:59.192Z,99.90
2022-09-12T06:18:42.502Z,99.90
2022-09-12T06:22:24.433Z,99.90
2022-09-12T06:26:09.126Z,99.90
2022-09-12T06:29:50.940Z,99.90
2022-09-12T06:33:35.171Z,99.90
2022-09-12T06:37:17.031Z,99.90
2022-09-12T06:40:59.665Z,99.90
2022-09-12T06:44:41.808Z,99.90
2022-09-12T06:48:23.957Z,99.90
2022-09-12T06:52:07.288Z,99.90
2022-09-12T06:55:56.022Z,99.90
2022-09-12T06:59:37.865Z,99.90
2022-09-12T07:03:19.854Z,99.90
2022-09-12T07:07:01.677Z,99.90
2022-09-12T07:10:43.645Z,99.90
2022-09-12T07:14:26.103Z,99.90
2022-09-12T07:18:10.189Z,99.90
2022-09-12T07:21:55.318Z,99.90
2022-09-12T07:25:40.379Z,99.90
2022-09-12T07:29:38.151Z,99.90
2022-09-12T07:33:29.463Z,99.90
2022-09-12T07:37:11.393Z,99.90
2022-09-12T07:40:53.616Z,99.90
2022-09-12T07:44:35.882Z,99.90
2022-09-12T07:48:17.712Z,99.90
2022-09-12T07:51:59.774Z,99.90
2022-09-12T07:55:41.724Z,99.90
2022-09-12T07:59:41.782Z,99.90
2022-09-12T08:03:25.420Z,99.90
2022-09-12T08:07:07.408Z,99.90
2022-09-12T08:10:49.441Z,99.90
2022-09-12T08:14:31.406Z,99.90
2022-09-12T08:18:13.328Z,99.90
2022-09-12T08:21:55.184Z,99.90
2022-09-12T08:25:37.027Z,99.90
2022-09-12T08:29:18.849Z,99.90
2022-09-12T08:33:00.687Z,99.90
2022-09-12T08:36:42.575Z,99.90
2022-09-12T08:40:24.583Z,99.90
2022-09-12T08:44:23.014Z,99.90
2022-09-12T08:48:06.027Z,99.90
2022-09-12T08:51:48.000Z,99.90
2022-09-12T08:55:40.267Z,99.90
2022-09-12T08:59:22.211Z,99.90
2022-09-12T09:03:06.799Z,99.90
2022-09-12T09:06:59.403Z,99.90
2022-09-12T09:10:49.030Z,99.90
2022-09-12T09:14:49.034Z,99.90
2022-09-12T09:18:35.230Z,99.90
2022-09-12T09:22:23.666Z,98.90
2022-09-12T09:26:14.785Z,99.90
2022-09-12T09:29:56.946Z,97.20
2022-09-12T09:33:38.790Z,95.70
2022-09-12T09:37:58.827Z,95.30
2022-09-12T09:41:49.780Z,95.10
2022-09-12T09:45:31.711Z,95.80
2022-09-12T09:49:15.552Z,95.10
2022-09-12T09:53:00.041Z,95.80
2022-09-12T09:56:42.771Z,95.00
2022-09-12T10:00:35.547Z,94.00
2022-09-12T10:04:23.664Z,93.30
2022-09-12T10:08:08.274Z,92.10
2022-09-12T10:11:51.338Z,90.60
2022-09-12T10:15:34.948Z,87.30
2022-09-12T10:19:26.949Z,84.00
2022-09-12T10:23:33.769Z,81.20
2022-09-12T10:27:25.924Z,82.70
2022-09-12T10:31:15.529Z,75.30
2022-09-12T10:35:03.627Z,72.70
2022-09-12T10:39:00.651Z,68.60
2022-09-12T10:42:50.132Z,69.90
2022-09-12T10:46:32.041Z,65.40
2022-09-12T10:50:44.169Z,64.70
2022-09-12T10:54:28.567Z,72.10
2022-09-12T10:58:42.952Z,61.50
2022-09-12T11:02:28.866Z,66.90
2022-09-12T11:06:15.707Z,58.60
2022-09-12T11:10:24.432Z,56.70
2022-09-12T11:14:19.277Z,60.40
2022-09-12T11:18:31.707Z,58.30
2022-09-12T11:22:19.592Z,61.20
2022-09-12T11:26:24.200Z,56.20
2022-09-12T11:30:14.956Z,62.20
2022-09-12T11:34:00.508Z,58.10
2022-09-12T11:38:11.716Z,59.50
2022-09-12T11:42:00.665Z,60.00
2022-09-12T11:45:45.111Z,61.90
2022-09-12T11:49:27.007Z,61.80
2022-09-12T11:53:18.718Z,61.50
2022-09-12T11:57:15.634Z,62.10
2022-09-12T12:01:21.002Z,63.60
2022-09-12T12:05:15.043Z,65.90
2022-09-12T12:08:58.046Z,64.20
2022-09-12T12:12:41.666Z,65.30
2022-09-12T12:16:29.991Z,65.10
2022-09-12T12:20:17.944Z,64.90
2022-09-12T12:24:09.232Z,65.60
2022-09-12T12:28:01.482Z,66.60
2022-09-12T12:32:09.558Z,66.50
2022-09-12T12:36:00.263Z,69.40
2022-09-12T12:39:42.144Z,68.90
2022-09-12T12:43:32.901Z,68.80
2022-09-12T12:47:17.754Z,70.60
2022-09-12T12:51:27.278Z,70.00
2022-09-12T12:55:18.429Z,72.20
2022-09-12T12:59:03.574Z,72.30
2022-09-12T13:02:58.140Z,72.60
2022-09-12T13:06:43.182Z,74.50
2022-09-12T13:10:29.359Z,74.20
2022-09-12T13:14:48.568Z,74.80
2022-09-12T13:18:42.569Z,75.10
2022-09-12T13:22:25.154Z,74.10
2022-09-12T13:26:22.327Z,74.70
2022-09-12T13:30:15.437Z,75.40
2022-09-12T13:34:01.215Z,76.20
2022-09-12T13:38:08.163Z,73.90
2022-09-12T13:41:56.243Z,74.00
2022-09-12T13:45:42.199Z,71.10
2022-09-12T13:49:35.737Z,71.30
2022-09-12T13:53:22.489Z,75.70
2022-09-12T13:57:05.438Z,71.00
2022-09-12T14:00:59.810Z,71.00
2022-09-12T14:05:00.102Z,71.10
2022-09-12T14:08:43.064Z,70.50
2022-09-12T14:12:26.258Z,70.20
2022-09-12T14:16:11.327Z,69.40
2022-09-12T14:19:53.403Z,69.20
2022-09-12T14:23:37.622Z,67.20
2022-09-12T14:27:29.269Z,65.80
2022-09-12T14:31:15.740Z,66.70
2022-09-12T14:35:19.862Z,68.10
2022-09-12T14:39:04.918Z,69.40
2022-09-12T14:42:49.750Z,68.50
2022-09-12T14:46:41.456Z,68.70
2022-09-12T14:50:32.375Z,70.60
2022-09-12T14:54:29.244Z,70.70
2022-09-12T14:58:19.894Z,70.70
2022-09-12T15:02:14.350Z,69.20
2022-09-12T15:05:56.788Z,70.10
2022-09-12T15:09:41.659Z,69.80
2022-09-12T15:13:28.140Z,71.30
2022-09-12T15:17:09.974Z,71.00
2022-09-12T15:20:55.455Z,71.50
2022-09-12T15:24:40.018Z,71.60
2022-09-12T15:28:23.989Z,72.80
2022-09-12T15:32:07.091Z,74.20
2022-09-12T15:35:49.131Z,72.80
2022-09-12T15:39:31.148Z,75.10
2022-09-12T15:43:13.871Z,73.60
2022-09-12T15:46:55.722Z,74.90
2022-09-12T15:50:37.626Z,75.60
2022-09-12T15:54:20.831Z,73.40
2022-09-12T15:58:06.987Z,74.40
2022-09-12T16:01:49.327Z,77.50
2022-09-12T16:05:31.444Z,76.90
2022-09-12T16:09:16.637Z,76.50
2022-09-12T16:12:59.755Z,75.80
2022-09-12T16:16:42.596Z,76.70
2022-09-12T16:20:24.555Z,75.80
2022-09-12T16:24:06.607Z,78.50
2022-09-12T16:27:48.549Z,77.70
2022-09-12T16:31:30.986Z,78.80
2022-09-12T16:35:13.115Z,79.00
2022-09-12T16:38:55.055Z,78.80
2022-09-12T16:42:39.673Z,79.20
2022-09-12T16:46:28.873Z,80.10
2022-09-12T16:50:11.519Z,81.40
2022-09-12T16:53:55.047Z,80.80
2022-09-12T16:57:36.910Z,80.40
2022-09-12T17:01:23.875Z,80.80
2022-09-12T17:05:06.242Z,81.50
2022-09-12T17:08:50.977Z,82.70
2022-09-12T17:12:32.939Z,82.30
2022-09-12T17:16:14.814Z,82.60
2022-09-12T17:19:56.733Z,84.00
2022-09-12T17:23:39.399Z,83.60
2022-09-12T17:27:21.253Z,83.90
2022-09-12T17:31:12.304Z,84.50
2022-09-12T17:34:54.206Z,85.50
2022-09-12T17:38:38.009Z,85.00
2022-09-12T17:42:20.355Z,86.50
2022-09-12T17:46:02.275Z,87.00
2022-09-12T17:49:44.966Z,87.90
2022-09-12T17:53:26.835Z,88.20
2022-09-12T17:57:08.729Z,89.10
2022-09-12T18:01:09.257Z,88.70
2022-09-12T18:04:51.111Z,89.00
2022-09-12T18:08:32.981Z,90.00
2022-09-12T18:12:15.630Z,89.30
2022-09-12T18:16:04.066Z,90.20
2022-09-12T18:19:51.567Z,90.10
2022-09-12T18:23:35.694Z,89.80
2022-09-12T18:27:17.619Z,90.50
2022-09-12T18:30:59.852Z,90.80
2022-09-12T18:34:41.936Z,90.70
2022-09-12T18:38:23.794Z,90.60
2022-09-12T18:42:05.821Z,91.40
2022-09-12T18:45:47.785Z,91.40
2022-09-12T18:49:31.122Z,90.80
2022-09-12T18:53:13.146Z,91.70
2022-09-12T18:56:54.995Z,92.00
2022-09-12T19:00:37.201Z,91.70
2022-09-12T19:04:19.310Z,91.90
2022-09-12T19:08:01.275Z,92.30
2022-09-12T19:11:48.936Z,92.30
2022-09-12T19:15:30.798Z,92.60
2022-09-12T19:19:12.611Z,92.80
2022-09-12T19:22:54.438Z,93.10
2022-09-12T19:26:37.057Z,93.20
2022-09-12T19:30:18.981Z,93.30
2022-09-12T19:34:05.616Z,93.90
2022-09-12T19:37:47.613Z,94.00
2022-09-12T19:41:29.814Z,94.00
2022-09-12T19:45:11.716Z,94.20
2022-09-12T19:48:54.028Z,94.80
2022-09-12T19:52:35.948Z,94.20
2022-09-12T19:56:18.030Z,94.70
2022-09-12T19:59:59.888Z,94.80
2022-09-12T20:03:42.764Z,95.00
2022-09-12T20:07:24.628Z,95.20
2022-09-12T20:11:07.412Z,95.30
2022-09-12T20:14:49.332Z,95.70
2022-09-12T20:18:31.213Z,95.60
2022-09-12T20:22:13.042Z,95.90
2022-09-12T20:25:54.863Z,96.10
2022-09-12T20:29:36.729Z,96.10
2022-09-12T20:33:18.578Z,96.20
2022-09-12T20:37:00.425Z,96.40
2022-09-12T20:40:48.535Z,96.50
2022-09-12T20:44:30.395Z,96.50
2022-09-12T20:48:12.198Z,96.70
2022-09-12T20:51:54.053Z,96.90
2022-09-12T20:55:35.930Z,96.80
2022-09-12T20:59:17.814Z,97.10
2022-09-12T21:02:59.780Z,97.10
2022-09-12T21:06:41.612Z,97.30
2022-09-12T21:10:23.390Z,97.40
2022-09-12T21:14:05.355Z,97.40
2022-09-12T21:17:47.153Z,97.90
2022-09-12T21:21:28.989Z,98.00
2022-09-12T21:25:10.974Z,98.20
2022-09-12T21:28:52.826Z,98.20
2022-09-12T21:32:35.992Z,98.10
2022-09-12T21:36:18.217Z,98.20
2022-09-12T21:40:00.098Z,98.10
2022-09-12T21:43:42.836Z,98.40
2022-09-12T21:47:24.786Z,98.60
2022-09-12T21:51:06.969Z,98.80
2022-09-12T21:54:48.780Z,98.90
2022-09-12T21:58:31.196Z,99.00
2022-09-12T22:02:13.938Z,99.20
2022-09-12T22:06:01.587Z,99.30
2022-09-12T22:09:43.520Z,99.10
2022-09-12T22:13:26.225Z,99.20
2022-09-12T22:17:10.095Z,99.30
2022-09-12T22:20:59.983Z,99.20
2022-09-12T22:24:41.858Z,99.40
2022-09-12T22:28:25.202Z,99.70
2022-09-12T22:32:07.073Z,99.90
2022-09-12T22:35:48.889Z,99.90
2022-09-12T22:39:30.704Z,99.50
2022-09-12T22:43:12.561Z,99.60
2022-09-12T22:46:54.416Z,99.70
2022-09-12T22:50:36.297Z,99.80
2022-09-12T22:54:18.137Z,99.90
2022-09-12T22:58:00.081Z,99.90
2022-09-12T23:01:41.903Z,99.90
2022-09-12T23:05:23.807Z,99.90
2022-09-12T23:09:05.675Z,99.90
2022-09-12T23:12:47.587Z,99.90
2022-09-12T23:16:32.100Z,99.90
2022-09-12T23:20:14.002Z,99.90
2022-09-12T23:23:56.532Z,99.90
2022-09-12T23:27:40.063Z,99.90
2022-09-12T23:31:23.964Z,99.90
2022-09-12T23:35:06.130Z,99.90
2022-09-12T23:38:48.037Z,99.90
2022-09-12T23:42:29.965Z,99.90
2022-09-12T23:46:13.984Z,99.90
2022-09-12T23:49:55.909Z,99.90
2022-09-12T23:53:38.038Z,99.90
2022-09-12T23:57:19.873Z,99.90
